sensor_id;sensor_type;location;lat;lon;timestamp;pressure;altitude;pressure_sealevel;temperature;humidity
76762;BME280;65705;51.032;13.790;2022-12-29T00:02:04;99762.66;;;8.26;66.35
76762;BME280;65705;51.032;13.790;2022-12-29T00:04:29;99761.69;;;8.27;65.88
76762;BME280;65705;51.032;13.790;2022-12-29T00:06:55;99759.06;;;8.27;65.73
76762;BME280;65705;51.032;13.790;2022-12-29T00:09:21;99762.03;;;8.32;65.42
76762;BME280;65705;51.032;13.790;2022-12-29T00:11:46;99755.38;;;8.37;65.39
76762;BME280;65705;51.032;13.790;2022-12-29T00:14:13;99744.16;;;8.45;65.19
76762;BME280;65705;51.032;13.790;2022-12-29T00:16:57;99745.34;;;8.50;64.65
76762;BME280;65705;51.032;13.790;2022-12-29T00:19:23;99740.69;;;8.62;64.18
76762;BME280;65705;51.032;13.790;2022-12-29T00:22:10;99743.50;;;8.77;63.64
76762;BME280;65705;51.032;13.790;2022-12-29T00:24:54;99749.81;;;8.92;62.95
76762;BME280;65705;51.032;13.790;2022-12-29T00:27:38;99753.09;;;9.02;62.74
76762;BME280;65705;51.032;13.790;2022-12-29T00:30:23;99758.72;;;9.15;62.15
76762;BME280;65705;51.032;13.790;2022-12-29T00:33:13;99735.72;;;9.26;61.33
76762;BME280;65705;51.032;13.790;2022-12-29T00:36:02;99726.72;;;9.37;61.08
76762;BME280;65705;51.032;13.790;2022-12-29T00:38:31;99734.28;;;9.48;60.69
76762;BME280;65705;51.032;13.790;2022-12-29T00:41:16;99739.69;;;9.54;60.33
76762;BME280;65705;51.032;13.790;2022-12-29T00:44:01;99735.09;;;9.65;60.27
76762;BME280;65705;51.032;13.790;2022-12-29T00:46:40;99733.81;;;9.69;59.62
76762;BME280;65705;51.032;13.790;2022-12-29T00:49:08;99742.81;;;9.74;59.29
76762;BME280;65705;51.032;13.790;2022-12-29T00:51:54;99731.88;;;9.79;59.52
76762;BME280;65705;51.032;13.790;2022-12-29T00:54:20;99730.38;;;9.84;59.54
76762;BME280;65705;51.032;13.790;2022-12-29T00:56:50;99718.44;;;9.98;59.41
76762;BME280;65705;51.032;13.790;2022-12-29T00:59:17;99720.72;;;9.93;60.38
76762;BME280;65705;51.032;13.790;2022-12-29T01:01:45;99704.16;;;10.00;61.00
76762;BME280;65705;51.032;13.790;2022-12-29T01:04:11;99694.00;;;9.97;61.50
76762;BME280;65705;51.032;13.790;2022-12-29T01:06:39;99706.16;;;9.98;61.43
76762;BME280;65705;51.032;13.790;2022-12-29T01:09:05;99705.97;;;10.00;61.58
76762;BME280;65705;51.032;13.790;2022-12-29T01:11:50;99704.31;;;9.99;62.35
76762;BME280;65705;51.032;13.790;2022-12-29T01:14:16;99707.94;;;9.98;62.61
76762;BME280;65705;51.032;13.790;2022-12-29T01:16:42;99709.75;;;9.97;63.06
76762;BME280;65705;51.032;13.790;2022-12-29T01:19:08;99707.28;;;9.96;63.38
76762;BME280;65705;51.032;13.790;2022-12-29T01:21:34;99706.28;;;9.97;63.42
76762;BME280;65705;51.032;13.790;2022-12-29T01:24:00;99715.97;;;9.96;63.81
76762;BME280;65705;51.032;13.790;2022-12-29T01:26:25;99710.91;;;9.95;63.88
76762;BME280;65705;51.032;13.790;2022-12-29T01:28:51;99713.66;;;9.93;63.76
76762;BME280;65705;51.032;13.790;2022-12-29T01:31:17;99721.38;;;9.95;64.12
76762;BME280;65705;51.032;13.790;2022-12-29T01:33:43;99713.34;;;9.96;63.65
76762;BME280;65705;51.032;13.790;2022-12-29T01:36:14;99713.34;;;9.96;63.63
76762;BME280;65705;51.032;13.790;2022-12-29T01:38:41;99707.63;;;9.93;63.37
76762;BME280;65705;51.032;13.790;2022-12-29T01:41:08;99715.66;;;9.83;63.98
76762;BME280;65705;51.032;13.790;2022-12-29T01:43:47;99720.22;;;9.81;64.30
76762;BME280;65705;51.032;13.790;2022-12-29T01:46:20;99719.09;;;9.68;64.80
76762;BME280;65705;51.032;13.790;2022-12-29T01:49:36;99712.50;;;9.55;65.79
76762;BME280;65705;51.032;13.790;2022-12-29T01:51:45;99716.75;;;9.48;65.52
76762;BME280;65705;51.032;13.790;2022-12-29T01:54:19;99711.69;;;9.47;65.98
76762;BME280;65705;51.032;13.790;2022-12-29T01:56:47;99702.81;;;9.40;66.04
76762;BME280;65705;51.032;13.790;2022-12-29T01:59:18;99705.78;;;9.37;65.46
76762;BME280;65705;51.032;13.790;2022-12-29T02:01:46;99704.28;;;9.34;66.08
76762;BME280;65705;51.032;13.790;2022-12-29T02:04:12;99698.06;;;9.27;66.45
76762;BME280;65705;51.032;13.790;2022-12-29T02:06:46;99699.03;;;9.26;66.39
76762;BME280;65705;51.032;13.790;2022-12-29T02:09:15;99685.97;;;9.26;66.53
76762;BME280;65705;51.032;13.790;2022-12-29T02:11:41;99691.63;;;9.06;67.31
76762;BME280;65705;51.032;13.790;2022-12-29T02:14:11;99675.41;;;9.02;68.09
76762;BME280;65705;51.032;13.790;2022-12-29T02:22:18;99666.09;;;9.00;68.46
76762;BME280;65705;51.032;13.790;2022-12-29T02:25:20;99675.06;;;8.97;68.04
76762;BME280;65705;51.032;13.790;2022-12-29T02:30:42;99678.53;;;8.98;68.27
76762;BME280;65705;51.032;13.790;2022-12-29T02:35:59;99668.34;;;8.95;68.42
76762;BME280;65705;51.032;13.790;2022-12-29T02:41:36;99665.06;;;8.93;68.28
76762;BME280;65705;51.032;13.790;2022-12-29T02:44:16;99661.16;;;8.97;68.53
76762;BME280;65705;51.032;13.790;2022-12-29T02:46:58;99652.47;;;8.96;68.76
76762;BME280;65705;51.032;13.790;2022-12-29T02:49:36;99653.66;;;9.02;68.62
76762;BME280;65705;51.032;13.790;2022-12-29T02:52:11;99657.13;;;9.10;68.75
76762;BME280;65705;51.032;13.790;2022-12-29T02:54:39;99640.59;;;9.18;68.48
76762;BME280;65705;51.032;13.790;2022-12-29T02:57:27;99649.97;;;9.28;67.99
76762;BME280;65705;51.032;13.790;2022-12-29T03:00:00;99649.00;;;9.37;67.71
76762;BME280;65705;51.032;13.790;2022-12-29T03:05:28;99639.97;;;9.56;67.51
76762;BME280;65705;51.032;13.790;2022-12-29T03:08:47;99639.50;;;9.61;67.18
76762;BME280;65705;51.032;13.790;2022-12-29T03:11:10;99636.84;;;9.69;66.90
76762;BME280;65705;51.032;13.790;2022-12-29T03:14:03;99636.34;;;9.81;66.34
76762;BME280;65705;51.032;13.790;2022-12-29T03:16:55;99649.13;;;9.92;65.73
76762;BME280;65705;51.032;13.790;2022-12-29T03:19:36;99638.31;;;9.95;65.60
76762;BME280;65705;51.032;13.790;2022-12-29T03:22:07;99643.06;;;10.00;65.50
76762;BME280;65705;51.032;13.790;2022-12-29T03:25:20;99634.38;;;10.07;64.80
76762;BME280;65705;51.032;13.790;2022-12-29T03:28:16;99629.94;;;10.16;64.72
76762;BME280;65705;51.032;13.790;2022-12-29T03:30:46;99628.13;;;10.24;64.51
76762;BME280;65705;51.032;13.790;2022-12-29T03:33:17;99634.31;;;10.31;63.96
76762;BME280;65705;51.032;13.790;2022-12-29T03:35:46;99631.56;;;10.25;63.45
76762;BME280;65705;51.032;13.790;2022-12-29T03:40:52;99629.97;;;10.00;63.24
76762;BME280;65705;51.032;13.790;2022-12-29T03:43:22;99640.44;;;9.92;63.83
76762;BME280;65705;51.032;13.790;2022-12-29T03:45:48;99623.09;;;9.83;64.06
76762;BME280;65705;51.032;13.790;2022-12-29T03:48:14;99620.97;;;9.78;64.61
76762;BME280;65705;51.032;13.790;2022-12-29T03:50:40;99620.66;;;9.65;64.42
76762;BME280;65705;51.032;13.790;2022-12-29T03:53:07;99626.06;;;9.64;64.47
76762;BME280;65705;51.032;13.790;2022-12-29T03:55:33;99625.25;;;9.55;64.91
76762;BME280;65705;51.032;13.790;2022-12-29T03:57:58;99619.84;;;9.56;64.83
76762;BME280;65705;51.032;13.790;2022-12-29T04:00:46;99609.53;;;9.47;64.85
76762;BME280;65705;51.032;13.790;2022-12-29T04:03:12;99613.44;;;9.59;64.67
76762;BME280;65705;51.032;13.790;2022-12-29T04:05:38;99612.81;;;9.57;64.60
76762;BME280;65705;51.032;13.790;2022-12-29T04:08:04;99598.22;;;9.46;64.27
76762;BME280;65705;51.032;13.790;2022-12-29T04:10:29;99602.31;;;9.49;64.19
76762;BME280;65705;51.032;13.790;2022-12-29T04:12:58;99598.38;;;9.45;64.35
76762;BME280;65705;51.032;13.790;2022-12-29T04:15:24;99596.28;;;9.40;64.50
76762;BME280;65705;51.032;13.790;2022-12-29T04:17:52;99603.97;;;9.42;64.51
76762;BME280;65705;51.032;13.790;2022-12-29T04:20:17;99591.53;;;9.44;64.52
76762;BME280;65705;51.032;13.790;2022-12-29T04:23:06;99586.63;;;9.41;64.68
76762;BME280;65705;51.032;13.790;2022-12-29T04:25:34;99594.78;;;9.38;64.73
76762;BME280;65705;51.032;13.790;2022-12-29T04:28:00;99602.34;;;9.41;64.97
76762;BME280;65705;51.032;13.790;2022-12-29T04:30:47;99595.63;;;9.38;64.85
76762;BME280;65705;51.032;13.790;2022-12-29T04:33:33;99597.09;;;9.41;64.52
76762;BME280;65705;51.032;13.790;2022-12-29T04:35:58;99601.16;;;9.43;64.41
76762;BME280;65705;51.032;13.790;2022-12-29T04:38:24;99586.78;;;9.47;64.33
76762;BME280;65705;51.032;13.790;2022-12-29T04:40:51;99605.91;;;9.40;64.56
76762;BME280;65705;51.032;13.790;2022-12-29T04:43:19;99597.59;;;9.44;64.17
76762;BME280;65705;51.032;13.790;2022-12-29T04:46:01;99592.16;;;9.38;64.17
76762;BME280;65705;51.032;13.790;2022-12-29T04:48:33;99601.50;;;9.40;64.49
76762;BME280;65705;51.032;13.790;2022-12-29T04:51:22;99588.91;;;9.44;64.89
76762;BME280;65705;51.032;13.790;2022-12-29T04:53:49;99605.59;;;9.43;65.20
76762;BME280;65705;51.032;13.790;2022-12-29T04:56:14;99600.84;;;9.46;64.67
76762;BME280;65705;51.032;13.790;2022-12-29T04:58:41;99602.50;;;9.47;64.78
76762;BME280;65705;51.032;13.790;2022-12-29T05:01:07;99606.59;;;9.50;64.61
76762;BME280;65705;51.032;13.790;2022-12-29T05:03:33;99616.72;;;9.53;65.18
76762;BME280;65705;51.032;13.790;2022-12-29T05:05:59;99604.94;;;9.57;65.29
76762;BME280;65705;51.032;13.790;2022-12-29T05:08:24;99605.44;;;9.61;66.00
76762;BME280;65705;51.032;13.790;2022-12-29T05:10:51;99612.97;;;9.64;66.04
76762;BME280;65705;51.032;13.790;2022-12-29T05:13:18;99611.47;;;9.69;65.68
76762;BME280;65705;51.032;13.790;2022-12-29T05:15:51;99620.19;;;9.70;65.95
76762;BME280;65705;51.032;13.790;2022-12-29T05:18:17;99620.16;;;9.78;66.23
76762;BME280;65705;51.032;13.790;2022-12-29T05:20:44;99612.59;;;9.83;65.99
76762;BME280;65705;51.032;13.790;2022-12-29T05:23:09;99609.66;;;9.86;65.65
76762;BME280;65705;51.032;13.790;2022-12-29T05:25:36;99604.09;;;9.89;66.20
76762;BME280;65705;51.032;13.790;2022-12-29T05:28:24;99597.53;;;9.93;66.88
76762;BME280;65705;51.032;13.790;2022-12-29T05:30:58;99608.81;;;9.93;66.51
76762;BME280;65705;51.032;13.790;2022-12-29T05:33:24;99604.06;;;9.97;67.30
76762;BME280;65705;51.032;13.790;2022-12-29T05:35:51;99609.47;;;10.03;67.43
76762;BME280;65705;51.032;13.790;2022-12-29T05:38:17;99608.16;;;10.07;67.86
76762;BME280;65705;51.032;13.790;2022-12-29T05:40:44;99613.75;;;10.12;67.93
76762;BME280;65705;51.032;13.790;2022-12-29T05:43:32;99616.00;;;10.15;67.95
76762;BME280;65705;51.032;13.790;2022-12-29T05:46:20;99627.97;;;10.18;67.53
76762;BME280;65705;51.032;13.790;2022-12-29T05:48:58;99622.06;;;10.24;67.69
76762;BME280;65705;51.032;13.790;2022-12-29T05:51:50;99618.28;;;10.26;67.83
76762;BME280;65705;51.032;13.790;2022-12-29T05:54:16;99611.72;;;10.30;67.55
76762;BME280;65705;51.032;13.790;2022-12-29T05:56:41;99606.94;;;10.34;67.44
76762;BME280;65705;51.032;13.790;2022-12-29T05:59:07;99600.88;;;10.33;66.91
76762;BME280;65705;51.032;13.790;2022-12-29T06:01:33;99600.72;;;10.35;67.02
76762;BME280;65705;51.032;13.790;2022-12-29T06:04:00;99612.69;;;10.37;66.95
76762;BME280;65705;51.032;13.790;2022-12-29T06:06:26;99618.41;;;10.41;66.88
76762;BME280;65705;51.032;13.790;2022-12-29T06:08:52;99612.63;;;10.45;66.95
76762;BME280;65705;51.032;13.790;2022-12-29T06:11:18;99622.94;;;10.47;67.03
76762;BME280;65705;51.032;13.790;2022-12-29T06:13:50;99624.25;;;10.51;66.70
76762;BME280;65705;51.032;13.790;2022-12-29T06:16:16;99624.56;;;10.56;66.82
76762;BME280;65705;51.032;13.790;2022-12-29T06:18:42;99624.41;;;10.57;66.53
76762;BME280;65705;51.032;13.790;2022-12-29T06:21:08;99623.41;;;10.58;66.42
76762;BME280;65705;51.032;13.790;2022-12-29T06:23:35;99621.09;;;10.63;66.34
76762;BME280;65705;51.032;13.790;2022-12-29T06:26:00;99627.81;;;10.66;66.23
76762;BME280;65705;51.032;13.790;2022-12-29T06:28:26;99627.63;;;10.68;66.14
76762;BME280;65705;51.032;13.790;2022-12-29T06:30:52;99629.72;;;10.72;66.10
76762;BME280;65705;51.032;13.790;2022-12-29T06:33:18;99622.69;;;10.73;65.93
76762;BME280;65705;51.032;13.790;2022-12-29T06:35:44;99608.22;;;10.77;65.65
76762;BME280;65705;51.032;13.790;2022-12-29T06:38:11;99606.25;;;10.79;65.75
76762;BME280;65705;51.032;13.790;2022-12-29T06:40:37;99608.06;;;10.78;65.92
76762;BME280;65705;51.032;13.790;2022-12-29T06:43:20;99612.16;;;10.81;65.46
76762;BME280;65705;51.032;13.790;2022-12-29T06:46:12;99612.47;;;10.78;65.46
76762;BME280;65705;51.032;13.790;2022-12-29T06:48:38;99602.63;;;10.80;64.91
76762;BME280;65705;51.032;13.790;2022-12-29T06:51:04;99602.81;;;10.78;65.22
76762;BME280;65705;51.032;13.790;2022-12-29T06:53:29;99604.78;;;10.76;65.00
76762;BME280;65705;51.032;13.790;2022-12-29T06:55:55;99602.34;;;10.75;64.86
76762;BME280;65705;51.032;13.790;2022-12-29T06:58:22;99613.84;;;10.74;64.86
76762;BME280;65705;51.032;13.790;2022-12-29T07:00:47;99600.53;;;10.75;64.67
76762;BME280;65705;51.032;13.790;2022-12-29T07:03:13;99610.84;;;10.77;64.65
76762;BME280;65705;51.032;13.790;2022-12-29T07:05:39;99619.56;;;10.77;64.28
76762;BME280;65705;51.032;13.790;2022-12-29T07:08:06;99610.22;;;10.75;64.42
76762;BME280;65705;51.032;13.790;2022-12-29T07:10:32;99603.34;;;10.74;64.58
76762;BME280;65705;51.032;13.790;2022-12-29T07:12:58;99594.00;;;10.71;64.59
76762;BME280;65705;51.032;13.790;2022-12-29T07:15:23;99598.41;;;10.71;64.37
76762;BME280;65705;51.032;13.790;2022-12-29T07:17:49;99599.06;;;10.73;64.52
76762;BME280;65705;51.032;13.790;2022-12-29T07:20:15;99616.28;;;10.75;64.54
76762;BME280;65705;51.032;13.790;2022-12-29T07:22:41;99608.88;;;10.79;64.25
76762;BME280;65705;51.032;13.790;2022-12-29T07:25:07;99621.53;;;10.75;64.43
76762;BME280;65705;51.032;13.790;2022-12-29T07:27:33;99622.31;;;10.76;64.06
76762;BME280;65705;51.032;13.790;2022-12-29T07:29:59;99617.13;;;10.68;63.98
76762;BME280;65705;51.032;13.790;2022-12-29T07:32:25;99626.03;;;10.58;64.77
76762;BME280;65705;51.032;13.790;2022-12-29T07:34:50;99625.38;;;10.56;64.96
76762;BME280;65705;51.032;13.790;2022-12-29T07:37:16;99637.31;;;10.67;64.61
76762;BME280;65705;51.032;13.790;2022-12-29T07:39:42;99633.06;;;10.66;65.05
76762;BME280;65705;51.032;13.790;2022-12-29T07:42:08;99627.47;;;10.69;65.00
76762;BME280;65705;51.032;13.790;2022-12-29T07:44:42;99613.31;;;10.78;65.00
76762;BME280;65705;51.032;13.790;2022-12-29T07:47:15;99606.72;;;10.82;64.92
76762;BME280;65705;51.032;13.790;2022-12-29T07:49:41;99609.66;;;10.87;64.82
76762;BME280;65705;51.032;13.790;2022-12-29T07:52:06;99607.66;;;10.89;64.65
76762;BME280;65705;51.032;13.790;2022-12-29T07:54:32;99613.56;;;10.91;64.66
76762;BME280;65705;51.032;13.790;2022-12-29T07:56:58;99611.59;;;10.93;64.32
76762;BME280;65705;51.032;13.790;2022-12-29T07:59:25;99615.19;;;10.92;64.19
76762;BME280;65705;51.032;13.790;2022-12-29T08:01:51;99629.03;;;10.86;63.19
76762;BME280;65705;51.032;13.790;2022-12-29T08:04:17;99623.72;;;10.63;62.84
76762;BME280;65705;51.032;13.790;2022-12-29T08:06:42;99617.69;;;10.47;63.26
76762;BME280;65705;51.032;13.790;2022-12-29T08:09:08;99627.75;;;10.35;63.60
76762;BME280;65705;51.032;13.790;2022-12-29T08:11:34;99633.72;;;10.21;63.62
76762;BME280;65705;51.032;13.790;2022-12-29T08:14:00;99636.50;;;10.20;64.09
76762;BME280;65705;51.032;13.790;2022-12-29T08:16:25;99640.94;;;10.19;64.25
76762;BME280;65705;51.032;13.790;2022-12-29T08:18:51;99648.00;;;10.11;64.32
76762;BME280;65705;51.032;13.790;2022-12-29T08:21:17;99662.25;;;10.16;64.38
76762;BME280;65705;51.032;13.790;2022-12-29T08:23:42;99653.72;;;10.14;63.88
76762;BME280;65705;51.032;13.790;2022-12-29T08:26:09;99651.91;;;10.15;63.17
76762;BME280;65705;51.032;13.790;2022-12-29T08:28:35;99654.53;;;10.15;63.20
76762;BME280;65705;51.032;13.790;2022-12-29T08:31:02;99658.16;;;10.14;63.05
76762;BME280;65705;51.032;13.790;2022-12-29T08:33:29;99663.38;;;10.14;63.79
76762;BME280;65705;51.032;13.790;2022-12-29T08:36:03;99662.38;;;10.15;63.69
76762;BME280;65705;51.032;13.790;2022-12-29T08:38:29;99662.88;;;10.18;63.63
76762;BME280;65705;51.032;13.790;2022-12-29T08:40:56;99652.38;;;10.18;63.28
76762;BME280;65705;51.032;13.790;2022-12-29T08:43:22;99659.94;;;10.21;63.27
76762;BME280;65705;51.032;13.790;2022-12-29T08:45:48;99654.88;;;10.20;63.31
76762;BME280;65705;51.032;13.790;2022-12-29T08:48:13;99648.13;;;10.17;63.81
76762;BME280;65705;51.032;13.790;2022-12-29T08:50:43;99643.72;;;10.18;63.69
76762;BME280;65705;51.032;13.790;2022-12-29T08:53:08;99655.50;;;10.22;63.41
76762;BME280;65705;51.032;13.790;2022-12-29T08:55:35;99658.16;;;10.14;63.30
76762;BME280;65705;51.032;13.790;2022-12-29T08:58:01;99648.00;;;10.11;63.25
76762;BME280;65705;51.032;13.790;2022-12-29T09:00:27;99640.63;;;10.14;63.58
76762;BME280;65705;51.032;13.790;2022-12-29T09:02:52;99642.06;;;10.25;63.39
76762;BME280;65705;51.032;13.790;2022-12-29T09:05:18;99637.13;;;10.30;63.13
76762;BME280;65705;51.032;13.790;2022-12-29T09:07:44;99630.03;;;10.38;63.22
76762;BME280;65705;51.032;13.790;2022-12-29T09:10:10;99638.19;;;10.51;63.47
76762;BME280;65705;51.032;13.790;2022-12-29T09:12:36;99626.34;;;10.63;63.43
76762;BME280;65705;51.032;13.790;2022-12-29T09:15:01;99634.19;;;10.72;62.77
76762;BME280;65705;51.032;13.790;2022-12-29T09:17:27;99627.38;;;10.85;62.72
76762;BME280;65705;51.032;13.790;2022-12-29T09:20:10;99633.88;;;10.97;62.39
76762;BME280;65705;51.032;13.790;2022-12-29T09:22:36;99624.94;;;11.06;62.21
76762;BME280;65705;51.032;13.790;2022-12-29T09:25:02;99626.88;;;11.12;62.05
76762;BME280;65705;51.032;13.790;2022-12-29T09:27:28;99634.09;;;11.18;61.76
76762;BME280;65705;51.032;13.790;2022-12-29T09:29:55;99627.78;;;11.27;61.35
76762;BME280;65705;51.032;13.790;2022-12-29T09:32:21;99624.81;;;11.30;61.43
76762;BME280;65705;51.032;13.790;2022-12-29T09:34:47;99628.72;;;11.34;61.28
76762;BME280;65705;51.032;13.790;2022-12-29T09:37:13;99628.19;;;11.39;61.09
76762;BME280;65705;51.032;13.790;2022-12-29T09:39:38;99626.66;;;11.44;60.89
76762;BME280;65705;51.032;13.790;2022-12-29T09:44:55;99635.47;;;11.51;60.58
76762;BME280;65705;51.032;13.790;2022-12-29T09:47:22;99630.16;;;11.59;60.43
76762;BME280;65705;51.032;13.790;2022-12-29T09:49:56;99620.63;;;11.58;60.29
76762;BME280;65705;51.032;13.790;2022-12-29T09:52:42;99635.88;;;11.63;59.96
76762;BME280;65705;51.032;13.790;2022-12-29T09:55:16;99635.19;;;11.69;60.12
76762;BME280;65705;51.032;13.790;2022-12-29T09:57:56;99630.25;;;11.74;59.69
76762;BME280;65705;51.032;13.790;2022-12-29T10:00:34;99621.81;;;11.79;59.28
76762;BME280;65705;51.032;13.790;2022-12-29T10:03:16;99629.00;;;11.85;59.17
76762;BME280;65705;51.032;13.790;2022-12-29T10:08:47;99618.38;;;11.93;58.95
76762;BME280;65705;51.032;13.790;2022-12-29T10:14:10;99635.53;;;12.03;58.52
76762;BME280;65705;51.032;13.790;2022-12-29T10:24:44;99614.16;;;12.06;58.20
76762;BME280;65705;51.032;13.790;2022-12-29T10:27:13;99622.84;;;12.07;57.92
76762;BME280;65705;51.032;13.790;2022-12-29T10:29:45;99626.22;;;12.15;57.66
76762;BME280;65705;51.032;13.790;2022-12-29T10:32:34;99622.03;;;12.21;57.52
76762;BME280;65705;51.032;13.790;2022-12-29T10:35:18;99624.31;;;12.24;57.58
76762;BME280;65705;51.032;13.790;2022-12-29T10:40:25;99608.69;;;12.37;57.18
76762;BME280;65705;51.032;13.790;2022-12-29T10:42:54;99622.13;;;12.42;57.76
76762;BME280;65705;51.032;13.790;2022-12-29T10:45:21;99615.41;;;12.54;56.77
76762;BME280;65705;51.032;13.790;2022-12-29T10:48:03;99608.91;;;12.71;56.34
76762;BME280;65705;51.032;13.790;2022-12-29T10:50:30;99597.72;;;12.84;56.04
76762;BME280;65705;51.032;13.790;2022-12-29T10:53:00;99582.06;;;12.97;55.91
76762;BME280;65705;51.032;13.790;2022-12-29T10:55:31;99588.25;;;13.04;55.59
76762;BME280;65705;51.032;13.790;2022-12-29T10:58:02;99588.06;;;13.05;55.69
76762;BME280;65705;51.032;13.790;2022-12-29T11:00:30;99586.25;;;13.06;55.79
76762;BME280;65705;51.032;13.790;2022-12-29T11:06:41;99582.09;;;13.18;55.77
76762;BME280;65705;51.032;13.790;2022-12-29T11:09:15;99582.97;;;13.25;55.77
76762;BME280;65705;51.032;13.790;2022-12-29T11:11:44;99575.84;;;13.40;55.28
76762;BME280;65705;51.032;13.790;2022-12-29T11:14:19;99583.63;;;13.48;55.10
76762;BME280;65705;51.032;13.790;2022-12-29T11:17:04;99585.91;;;13.57;54.66
76762;BME280;65705;51.032;13.790;2022-12-29T11:19:32;99584.72;;;13.60;54.70
76762;BME280;65705;51.032;13.790;2022-12-29T11:22:21;99579.66;;;13.58;54.83
76762;BME280;65705;51.032;13.790;2022-12-29T11:24:49;99591.25;;;13.64;54.62
76762;BME280;65705;51.032;13.790;2022-12-29T11:27:25;99583.28;;;13.57;55.15
76762;BME280;65705;51.032;13.790;2022-12-29T11:29:53;99586.69;;;13.51;55.28
76762;BME280;65705;51.032;13.790;2022-12-29T11:32:27;99573.50;;;13.51;55.34
76762;BME280;65705;51.032;13.790;2022-12-29T11:34:58;99582.59;;;13.49;55.29
76762;BME280;65705;51.032;13.790;2022-12-29T11:37:36;99584.63;;;13.47;55.15
76762;BME280;65705;51.032;13.790;2022-12-29T11:40:15;99585.03;;;13.50;55.39
76762;BME280;65705;51.032;13.790;2022-12-29T11:47:51;99574.47;;;13.71;55.01
76762;BME280;65705;51.032;13.790;2022-12-29T11:50:29;99572.25;;;13.75;54.77
76762;BME280;65705;51.032;13.790;2022-12-29T11:56:00;99569.69;;;13.82;54.26
76762;BME280;65705;51.032;13.790;2022-12-29T11:58:30;99572.75;;;13.85;54.19
76762;BME280;65705;51.032;13.790;2022-12-29T12:01:13;99570.72;;;13.87;54.15
76762;BME280;65705;51.032;13.790;2022-12-29T12:03:56;99571.09;;;13.84;54.25
76762;BME280;65705;51.032;13.790;2022-12-29T12:06:24;99565.41;;;13.81;54.28
76762;BME280;65705;51.032;13.790;2022-12-29T12:08:55;99569.44;;;13.77;54.48
76762;BME280;65705;51.032;13.790;2022-12-29T12:11:26;99547.91;;;13.73;55.00
76762;BME280;65705;51.032;13.790;2022-12-29T12:17:18;99568.50;;;13.63;55.44
76762;BME280;65705;51.032;13.790;2022-12-29T12:19:59;99562.00;;;13.59;54.93
76762;BME280;65705;51.032;13.790;2022-12-29T12:22:34;99556.72;;;13.59;54.36
76762;BME280;65705;51.032;13.790;2022-12-29T12:25:05;99561.63;;;13.62;54.38
76762;BME280;65705;51.032;13.790;2022-12-29T12:28:24;99558.41;;;13.66;54.66
76762;BME280;65705;51.032;13.790;2022-12-29T12:30:55;99556.59;;;13.67;53.90
76762;BME280;65705;51.032;13.790;2022-12-29T12:33:29;99549.72;;;13.72;53.37
76762;BME280;65705;51.032;13.790;2022-12-29T12:41:02;99545.53;;;13.85;53.43
76762;BME280;65705;51.032;13.790;2022-12-29T12:52:21;99543.19;;;13.96;52.84
76762;BME280;65705;51.032;13.790;2022-12-29T12:58:06;99534.47;;;14.02;52.89
76762;BME280;65705;51.032;13.790;2022-12-29T13:06:21;99534.34;;;14.17;52.66
76762;BME280;65705;51.032;13.790;2022-12-29T13:09:06;99526.47;;;14.23;52.30
76762;BME280;65705;51.032;13.790;2022-12-29T13:15:36;99523.91;;;14.30;52.11
76762;BME280;65705;51.032;13.790;2022-12-29T13:17:42;99526.13;;;14.33;52.15
76762;BME280;65705;51.032;13.790;2022-12-29T13:23:08;99528.75;;;14.26;52.30
76762;BME280;65705;51.032;13.790;2022-12-29T13:36:45;99529.06;;;14.10;52.07
76762;BME280;65705;51.032;13.790;2022-12-29T13:39:18;99527.59;;;14.08;52.14
76762;BME280;65705;51.032;13.790;2022-12-29T13:41:53;99532.25;;;13.99;52.65
76762;BME280;65705;51.032;13.790;2022-12-29T13:44:41;99544.19;;;13.95;52.95
76762;BME280;65705;51.032;13.790;2022-12-29T13:47:31;99539.31;;;13.92;53.00
76762;BME280;65705;51.032;13.790;2022-12-29T13:50:01;99535.63;;;13.87;53.06
76762;BME280;65705;51.032;13.790;2022-12-29T13:52:36;99534.56;;;13.81;52.86
76762;BME280;65705;51.032;13.790;2022-12-29T13:58:13;99538.16;;;13.73;53.38
76762;BME280;65705;51.032;13.790;2022-12-29T14:00:56;99541.00;;;13.72;53.07
76762;BME280;65705;51.032;13.790;2022-12-29T14:03:51;99553.94;;;13.67;53.50
76762;BME280;65705;51.032;13.790;2022-12-29T14:06:28;99551.50;;;13.65;53.55
76762;BME280;65705;51.032;13.790;2022-12-29T14:09:03;99548.03;;;13.65;53.57
76762;BME280;65705;51.032;13.790;2022-12-29T14:13:57;99551.44;;;13.59;53.82
76762;BME280;65705;51.032;13.790;2022-12-29T14:16:32;99553.66;;;13.55;53.98
76762;BME280;65705;51.032;13.790;2022-12-29T14:19:11;99555.84;;;13.52;54.05
76762;BME280;65705;51.032;13.790;2022-12-29T14:21:39;99555.41;;;13.48;54.23
76762;BME280;65705;51.032;13.790;2022-12-29T14:34:47;99557.34;;;13.33;54.69
76762;BME280;65705;51.032;13.790;2022-12-29T14:37:27;99558.53;;;13.31;54.89
76762;BME280;65705;51.032;13.790;2022-12-29T14:40:28;99571.06;;;13.29;54.92
76762;BME280;65705;51.032;13.790;2022-12-29T14:42:55;99571.66;;;13.24;54.93
76762;BME280;65705;51.032;13.790;2022-12-29T14:45:30;99576.28;;;13.22;54.92
76762;BME280;65705;51.032;13.790;2022-12-29T14:51:01;99584.75;;;13.18;55.03
76762;BME280;65705;51.032;13.790;2022-12-29T14:53:50;99586.94;;;13.14;55.38
76762;BME280;65705;51.032;13.790;2022-12-29T14:56:18;99588.16;;;13.12;55.34
76762;BME280;65705;51.032;13.790;2022-12-29T14:59:02;99582.44;;;13.08;55.22
76762;BME280;65705;51.032;13.790;2022-12-29T15:01:39;99581.81;;;13.06;55.41
76762;BME280;65705;51.032;13.790;2022-12-29T15:04:34;99578.53;;;13.04;55.43
76762;BME280;65705;51.032;13.790;2022-12-29T15:07:02;99579.25;;;12.98;55.47
76762;BME280;65705;51.032;13.790;2022-12-29T15:09:39;99573.34;;;12.96;55.40
76762;BME280;65705;51.032;13.790;2022-12-29T15:14:59;99582.00;;;12.90;55.29